Station Historical Data
Daily Summary for March 3, 2017 Units:  Both    English   Metric
« Previous Day
Next Day »
Daily Weekly Monthly Yearly Custom
  High: Low: Average:
Temperature: 27.7 °F /  -2.4 °C 17.5 °F /  -8.1 °C 22 °F /  -5.6 °C
Dew Point: 19.7 °F /  -6.8 °C 3.4 °F /  -15.9 °C 10.5 °F /  -11.9 °C
Humidity: 85% 44% 61%
Wind Speed: 16.0mph /  25.7km/h - 5.5mph /  8.9km/h
Wind Gust: 23.0mph /  37km/h - -
Wind- - WNW
Pressure: 30.55 in /  1034.4 hPa 30.22 in /  1023.2 hPa -
Precipitation: 0.00 in /  0 mm    
Historical Graphs
 
 
Tabular Data for March 3, 2017
Time Temperature Dew Point Pressure Wind Wind Speed Wind Gust Humidity Rainfall Rate (Hourly)
00:04 22.9 °F /  -5.1 °C 13.2 °F /  -10.4 °C 30.23in /  1023.6hPa NW 8.0mph /  12.9km/h 8.0mph /  12.9km/h 66% 0.00in /  0mm
00:09 22.6 °F /  -5.2 °C 12.6 °F /  -10.8 °C 30.23in /  1023.6hPa WNW 3.0mph /  4.8km/h 8.0mph /  12.9km/h 65% 0.00in /  0mm
00:14 22.5 °F /  -5.3 °C 12.8 °F /  -10.7 °C 30.23in /  1023.6hPa NW 4.0mph /  6.4km/h 9.0mph /  14.5km/h 66% 0.00in /  0mm
00:19 22.5 °F /  -5.3 °C 13.2 °F /  -10.4 °C 30.23in /  1023.6hPa NW 4.0mph /  6.4km/h 9.0mph /  14.5km/h 67% 0.00in /  0mm
00:24 22.5 °F /  -5.3 °C 13.2 °F /  -10.4 °C 30.23in /  1023.6hPa NW 3.0mph /  4.8km/h 8.0mph /  12.9km/h 67% 0.00in /  0mm
00:29 22.4 °F /  -5.3 °C 13.1 °F /  -10.5 °C 30.23in /  1023.6hPa NW 3.0mph /  4.8km/h 8.0mph /  12.9km/h 67% 0.00in /  0mm
00:34 22.3 °F /  -5.4 °C 13.0 °F /  -10.6 °C 30.23in /  1023.6hPa NW 2.0mph /  3.2km/h 8.0mph /  12.9km/h 67% 0.00in /  0mm
00:39 22.3 °F /  -5.4 °C 12.7 °F /  -10.7 °C 30.23in /  1023.6hPa WNW 3.0mph /  4.8km/h 7.0mph /  11.3km/h 66% 0.00in /  0mm
00:44 22.3 °F /  -5.4 °C 12.7 °F /  -10.7 °C 30.23in /  1023.6hPa WNW 3.0mph /  4.8km/h 6.0mph /  9.7km/h 66% 0.00in /  0mm
00:49 22.2 °F /  -5.4 °C 12.6 °F /  -10.8 °C 30.24in /  1023.9hPa WNW 2.0mph /  3.2km/h 6.0mph /  9.7km/h 66% 0.00in /  0mm
00:54 22.2 °F /  -5.4 °C 12.9 °F /  -10.6 °C 30.24in /  1023.9hPa West 6.0mph /  9.7km/h 6.0mph /  9.7km/h 67% 0.00in /  0mm
00:59 22.2 °F /  -5.4 °C 12.9 °F /  -10.6 °C 30.24in /  1023.9hPa West 4.0mph /  6.4km/h 7.0mph /  11.3km/h 67% 0.00in /  0mm
01:04 22.1 °F /  -5.5 °C 12.8 °F /  -10.7 °C 30.24in /  1023.9hPa West 3.0mph /  4.8km/h 6.0mph /  9.7km/h 67% 0.00in /  0mm
01:09 22.0 °F /  -5.6 °C 12.7 °F /  -10.7 °C 30.23in /  1023.6hPa WNW 3.0mph /  4.8km/h 5.0mph /  8km/h 67% 0.00in /  0mm
01:14 22.0 °F /  -5.6 °C 12.7 °F /  -10.7 °C 30.23in /  1023.6hPa WNW 2.0mph /  3.2km/h 5.0mph /  8km/h 67% 0.00in /  0mm
01:19 21.8 °F /  -5.7 °C 12.5 °F /  -10.8 °C 30.23in /  1023.6hPa West 3.0mph /  4.8km/h 5.0mph /  8km/h 67% 0.00in /  0mm
01:24 21.7 °F /  -5.7 °C 12.4 °F /  -10.9 °C 30.23in /  1023.6hPa West 3.0mph /  4.8km/h 7.0mph /  11.3km/h 67% 0.00in /  0mm
01:29 21.7 °F /  -5.7 °C 12.4 °F /  -10.9 °C 30.23in /  1023.6hPa West 3.0mph /  4.8km/h 7.0mph /  11.3km/h 67% 0.00in /  0mm
01:34 21.6 °F /  -5.8 °C 13.0 °F /  -10.6 °C 30.23in /  1023.6hPa WSW 2.0mph /  3.2km/h 6.0mph /  9.7km/h 69% 0.00in /  0mm
01:39 21.3 °F /  -5.9 °C 13.0 °F /  -10.6 °C 30.23in /  1023.6hPa WSW 2.0mph /  3.2km/h 4.0mph /  6.4km/h 70% 0.00in /  0mm
01:44 21.3 °F /  -5.9 °C 13.4 °F /  -10.3 °C 30.23in /  1023.6hPa SW 4.0mph /  6.4km/h 4.0mph /  6.4km/h 71% 0.00in /  0mm
01:49 21.4 °F /  -5.9 °C 13.5 °F /  -10.3 °C 30.23in /  1023.6hPa SW 2.0mph /  3.2km/h 5.0mph /  8km/h 71% 0.00in /  0mm
01:54 21.7 °F /  -5.7 °C 13.4 °F /  -10.3 °C 30.23in /  1023.6hPa SW 2.0mph /  3.2km/h 4.0mph /  6.4km/h 70% 0.00in /  0mm
01:59 21.8 °F /  -5.7 °C 13.5 °F /  -10.3 °C 30.23in /  1023.6hPa SW 1.0mph /  1.6km/h 4.0mph /  6.4km/h 70% 0.00in /  0mm
02:04 21.8 °F /  -5.7 °C 13.5 °F /  -10.3 °C 30.23in /  1023.6hPa WSW 1.0mph /  1.6km/h 5.0mph /  8km/h 70% 0.00in /  0mm
02:09 21.9 °F /  -5.6 °C 13.6 °F /  -10.2 °C 30.23in /  1023.6hPa West 4.0mph /  6.4km/h 7.0mph /  11.3km/h 70% 0.00in /  0mm
02:14 21.9 °F /  -5.6 °C 13.6 °F /  -10.2 °C 30.23in /  1023.6hPa West 2.0mph /  3.2km/h 5.0mph /  8km/h 70% 0.00in /  0mm
02:19 22.0 °F /  -5.6 °C 13.7 °F /  -10.2 °C 30.23in /  1023.6hPa SW 3.0mph /  4.8km/h 5.0mph /  8km/h 70% 0.00in /  0mm
02:24 22.1 °F /  -5.5 °C 13.8 °F /  -10.1 °C 30.23in /  1023.6hPa WSW 3.0mph /  4.8km/h 5.0mph /  8km/h 70% 0.00in /  0mm
02:29 22.1 °F /  -5.5 °C 13.5 °F /  -10.3 °C 30.23in /  1023.6hPa WSW 3.0mph /  4.8km/h 6.0mph /  9.7km/h 69% 0.00in /  0mm
02:34 22.1 °F /  -5.5 °C 13.5 °F /  -10.3 °C 30.22in /  1023.2hPa WSW 4.0mph /  6.4km/h 7.0mph /  11.3km/h 69% 0.00in /  0mm
02:39 22.0 °F /  -5.6 °C 13.7 °F /  -10.2 °C 30.22in /  1023.2hPa WSW 3.0mph /  4.8km/h 7.0mph /  11.3km/h 70% 0.00in /  0mm
02:44 21.9 °F /  -5.6 °C 13.9 °F /  -10.1 °C 30.23in /  1023.6hPa WSW 3.0mph /  4.8km/h 7.0mph /  11.3km/h 71% 0.00in /  0mm
02:49 21.8 °F /  -5.7 °C 13.5 °F /  -10.3 °C 30.23in /  1023.6hPa West 2.0mph /  3.2km/h 4.0mph /  6.4km/h 70% 0.00in /  0mm
02:54 21.8 °F /  -5.7 °C 13.5 °F /  -10.3 °C 30.22in /  1023.2hPa WSW 2.0mph /  3.2km/h 5.0mph /  8km/h 70% 0.00in /  0mm
02:59 21.7 °F /  -5.7 °C 13.4 °F /  -10.3 °C 30.23in /  1023.6hPa Calm   3.0mph /  4.8km/h 70% 0.00in /  0mm
03:04 21.7 °F /  -5.7 °C 13.4 °F /  -10.3 °C 30.23in /  1023.6hPa WNW 2.0mph /  3.2km/h 5.0mph /  8km/h 70% 0.00in /  0mm
03:09 21.5 °F /  -5.8 °C 13.2 °F /  -10.4 °C 30.23in /  1023.6hPa West 4.0mph /  6.4km/h 6.0mph /  9.7km/h 70% 0.00in /  0mm
03:14 21.4 °F /  -5.9 °C 13.1 °F /  -10.5 °C 30.23in /  1023.6hPa WSW 5.0mph /  8km/h 6.0mph /  9.7km/h 70% 0.00in /  0mm
03:19 21.2 °F /  -6 °C 12.6 °F /  -10.8 °C 30.23in /  1023.6hPa WSW 3.0mph /  4.8km/h 8.0mph /  12.9km/h 69% 0.00in /  0mm
03:24 21.2 °F /  -6 °C 12.6 °F /  -10.8 °C 30.23in /  1023.6hPa WSW 3.0mph /  4.8km/h 5.0mph /  8km/h 69% 0.00in /  0mm
03:29 20.9 °F /  -6.2 °C 12.6 °F /  -10.8 °C 30.22in /  1023.2hPa WSW 3.0mph /  4.8km/h 6.0mph /  9.7km/h 70% 0.00in /  0mm
03:34 20.8 °F /  -6.2 °C 12.6 °F /  -10.8 °C 30.22in /  1023.2hPa WSW 3.0mph /  4.8km/h 6.0mph /  9.7km/h 70% 0.00in /  0mm
03:39 20.6 °F /  -6.3 °C 12.4 °F /  -10.9 °C 30.22in /  1023.2hPa WSW 2.0mph /  3.2km/h 6.0mph /  9.7km/h 70% 0.00in /  0mm
03:44 20.3 °F /  -6.5 °C 12.4 °F /  -10.9 °C 30.22in /  1023.2hPa WSW 2.0mph /  3.2km/h 4.0mph /  6.4km/h 71% 0.00in /  0mm
03:49 20.4 °F /  -6.4 °C 12.5 °F /  -10.8 °C 30.23in /  1023.6hPa WSW 2.0mph /  3.2km/h 5.0mph /  8km/h 71% 0.00in /  0mm
03:54 20.4 °F /  -6.4 °C 12.5 °F /  -10.8 °C 30.23in /  1023.6hPa West 2.0mph /  3.2km/h 6.0mph /  9.7km/h 71% 0.00in /  0mm
03:59 20.4 °F /  -6.4 °C 12.5 °F /  -10.8 °C 30.23in /  1023.6hPa WSW 1.0mph /  1.6km/h 6.0mph /  9.7km/h 71% 0.00in /  0mm
04:04 20.3 °F /  -6.5 °C 12.4 °F /  -10.9 °C 30.22in /  1023.2hPa West 2.0mph /  3.2km/h 3.0mph /  4.8km/h 71% 0.00in /  0mm
04:09 20.4 °F /  -6.4 °C 12.5 °F /  -10.8 °C 30.23in /  1023.6hPa West 2.0mph /  3.2km/h 6.0mph /  9.7km/h 71% 0.00in /  0mm
04:14 20.5 °F /  -6.4 °C 12.6 °F /  -10.8 °C 30.23in /  1023.6hPa West 3.0mph /  4.8km/h 6.0mph /  9.7km/h 71% 0.00in /  0mm
04:19 20.6 °F /  -6.3 °C 12.4 °F /  -10.9 °C 30.23in /  1023.6hPa West 2.0mph /  3.2km/h 6.0mph /  9.7km/h 70% 0.00in /  0mm
04:24 20.6 °F /  -6.3 °C 12.4 °F /  -10.9 °C 30.23in /  1023.6hPa West 3.0mph /  4.8km/h 6.0mph /  9.7km/h 70% 0.00in /  0mm
04:29 20.7 °F /  -6.3 °C 12.5 °F /  -10.8 °C 30.23in /  1023.6hPa West 4.0mph /  6.4km/h 6.0mph /  9.7km/h 70% 0.00in /  0mm
04:34 20.8 °F /  -6.2 °C 12.2 °F /  -11 °C 30.23in /  1023.6hPa West 3.0mph /  4.8km/h 6.0mph /  9.7km/h 69% 0.00in /  0mm
04:39 20.9 °F /  -6.2 °C 12.3 °F /  -10.9 °C 30.23in /  1023.6hPa West 3.0mph /  4.8km/h 8.0mph /  12.9km/h 69% 0.00in /  0mm
04:44 20.9 °F /  -6.2 °C 12.3 °F /  -10.9 °C 30.23in /  1023.6hPa West 3.0mph /  4.8km/h 8.0mph /  12.9km/h 69% 0.00in /  0mm
04:49 20.9 °F /  -6.2 °C 12.3 °F /  -10.9 °C 30.23in /  1023.6hPa West 3.0mph /  4.8km/h 6.0mph /  9.7km/h 69% 0.00in /  0mm
04:54 20.8 °F /  -6.2 °C 11.9 °F /  -11.2 °C 30.23in /  1023.6hPa West 3.0mph /  4.8km/h 6.0mph /  9.7km/h 68% 0.00in /  0mm
04:59 20.9 °F /  -6.2 °C 12.0 °F /  -11.1 °C 30.23in /  1023.6hPa NW 3.0mph /  4.8km/h 7.0mph /  11.3km/h 68% 0.00in /  0mm
05:04 20.9 °F /  -6.2 °C 12.0 °F /  -11.1 °C 30.23in /  1023.6hPa West 2.0mph /  3.2km/h 4.0mph /  6.4km/h 68% 0.00in /  0mm
05:09 21.0 °F /  -6.1 °C 12.1 °F /  -11.1 °C 30.23in /  1023.6hPa West 2.0mph /  3.2km/h 5.0mph /  8km/h 68% 0.00in /  0mm
05:14 21.2 °F /  -6 °C 11.9 °F /  -11.2 °C 30.23in /  1023.6hPa West 5.0mph /  8km/h 6.0mph /  9.7km/h 67% 0.00in /  0mm
05:19 21.3 °F /  -5.9 °C 12.0 °F /  -11.1 °C 30.23in /  1023.6hPa WSW 2.0mph /  3.2km/h 5.0mph /  8km/h 67% 0.00in /  0mm
05:24 21.4 °F /  -5.9 °C 12.1 °F /  -11.1 °C 30.23in /  1023.6hPa West 3.0mph /  4.8km/h 6.0mph /  9.7km/h 67% 0.00in /  0mm
05:29 21.6 °F /  -5.8 °C 12.0 °F /  -11.1 °C 30.23in /  1023.6hPa WNW 2.0mph /  3.2km/h 5.0mph /  8km/h 66% 0.00in /  0mm
05:34 21.7 °F /  -5.7 °C 12.1 °F /  -11.1 °C 30.23in /  1023.6hPa WSW 2.0mph /  3.2km/h 7.0mph /  11.3km/h 66% 0.00in /  0mm
05:39 21.8 °F /  -5.7 °C 11.8 °F /  -11.2 °C 30.23in /  1023.6hPa West 4.0mph /  6.4km/h 5.0mph /  8km/h 65% 0.00in /  0mm
05:44 21.9 °F /  -5.6 °C 11.9 °F /  -11.2 °C 30.23in /  1023.6hPa West 2.0mph /  3.2km/h 5.0mph /  8km/h 65% 0.00in /  0mm
05:49 22.0 °F /  -5.6 °C 12.0 °F /  -11.1 °C 30.23in /  1023.6hPa West 2.0mph /  3.2km/h 5.0mph /  8km/h 65% 0.00in /  0mm
05:54 22.2 °F /  -5.4 °C 11.5 °F /  -11.4 °C 30.23in /  1023.6hPa West 3.0mph /  4.8km/h 5.0mph /  8km/h 63% 0.00in /  0mm
05:59 22.3 °F /  -5.4 °C 11.6 °F /  -11.3 °C 30.23in /  1023.6hPa West 2.0mph /  3.2km/h 5.0mph /  8km/h 63% 0.00in /  0mm
06:04 22.4 °F /  -5.3 °C 11.7 °F /  -11.3 °C 30.23in /  1023.6hPa West 2.0mph /  3.2km/h 5.0mph /  8km/h 63% 0.00in /  0mm
06:09 22.5 °F /  -5.3 °C 11.4 °F /  -11.4 °C 30.23in /  1023.6hPa WSW 3.0mph /  4.8km/h 5.0mph /  8km/h 62% 0.00in /  0mm
06:14 22.5 °F /  -5.3 °C 11.4 °F /  -11.4 °C 30.23in /  1023.6hPa West 3.0mph /  4.8km/h 4.0mph /  6.4km/h 62% 0.00in /  0mm
06:19 22.6 °F /  -5.2 °C 11.9 °F /  -11.2 °C 30.23in /  1023.6hPa West 2.0mph /  3.2km/h 4.0mph /  6.4km/h 63% 0.00in /  0mm
06:24 22.7 °F /  -5.2 °C 12.0 °F /  -11.1 °C 30.23in /  1023.6hPa WSW 2.0mph /  3.2km/h 3.0mph /  4.8km/h 63% 0.00in /  0mm
06:29 22.8 °F /  -5.1 °C 11.7 °F /  -11.3 °C 30.23in /  1023.6hPa WSW 3.0mph /  4.8km/h 5.0mph /  8km/h 62% 0.00in /  0mm
06:34 22.9 °F /  -5.1 °C 12.2 °F /  -11 °C 30.23in /  1023.6hPa WSW 3.0mph /  4.8km/h 7.0mph /  11.3km/h 63% 0.00in /  0mm
06:39 23.0 °F /  -5 °C 12.3 °F /  -10.9 °C 30.23in /  1023.6hPa Calm   6.0mph /  9.7km/h 63% 0.00in /  0mm
06:44 23.0 °F /  -5 °C 12.6 °F /  -10.8 °C 30.23in /  1023.6hPa West 3.0mph /  4.8km/h 3.0mph /  4.8km/h 64% 0.00in /  0mm
06:49 23.0 °F /  -5 °C 12.6 °F /  -10.8 °C 30.23in /  1023.6hPa WSW 5.0mph /  8km/h 5.0mph /  8km/h 64% 0.00in /  0mm
06:54 23.1 °F /  -4.9 °C 12.4 °F /  -10.9 °C 30.23in /  1023.6hPa WSW 3.0mph /  4.8km/h 7.0mph /  11.3km/h 63% 0.00in /  0mm
06:59 23.2 °F /  -4.9 °C 12.5 °F /  -10.8 °C 30.23in /  1023.6hPa WSW 4.0mph /  6.4km/h 9.0mph /  14.5km/h 63% 0.00in /  0mm
07:04 23.2 °F /  -4.9 °C 12.5 °F /  -10.8 °C 30.23in /  1023.6hPa WSW 4.0mph /  6.4km/h 9.0mph /  14.5km/h 63% 0.00in /  0mm
07:09 23.4 °F /  -4.8 °C 12.6 °F /  -10.8 °C 30.23in /  1023.6hPa West 4.0mph /  6.4km/h 7.0mph /  11.3km/h 63% 0.00in /  0mm
07:14 23.5 °F /  -4.7 °C 13.1 °F /  -10.5 °C 30.24in /  1023.9hPa WSW 2.0mph /  3.2km/h 9.0mph /  14.5km/h 64% 0.00in /  0mm
07:19 23.6 °F /  -4.7 °C 13.2 °F /  -10.4 °C 30.24in /  1023.9hPa WSW 2.0mph /  3.2km/h 5.0mph /  8km/h 64% 0.00in /  0mm
07:24 23.7 °F /  -4.6 °C 13.3 °F /  -10.4 °C 30.24in /  1023.9hPa WSW 3.0mph /  4.8km/h 5.0mph /  8km/h 64% 0.00in /  0mm
07:29 24.0 °F /  -4.4 °C 13.6 °F /  -10.2 °C 30.24in /  1023.9hPa WSW 3.0mph /  4.8km/h 6.0mph /  9.7km/h 64% 0.00in /  0mm
07:34 24.2 °F /  -4.3 °C 13.4 °F /  -10.3 °C 30.24in /  1023.9hPa WSW 3.0mph /  4.8km/h 7.0mph /  11.3km/h 63% 0.00in /  0mm
07:39 24.4 °F /  -4.2 °C 13.6 °F /  -10.2 °C 30.24in /  1023.9hPa West 4.0mph /  6.4km/h 7.0mph /  11.3km/h 63% 0.00in /  0mm
07:44 24.6 °F /  -4.1 °C 13.8 °F /  -10.1 °C 30.24in /  1023.9hPa West 4.0mph /  6.4km/h 10.0mph /  16.1km/h 63% 0.00in /  0mm
07:49 24.8 °F /  -4 °C 13.6 °F /  -10.2 °C 30.24in /  1023.9hPa WSW 6.0mph /  9.7km/h 9.0mph /  14.5km/h 62% 0.00in /  0mm
07:54 25.0 °F /  -3.9 °C 13.8 °F /  -10.1 °C 30.24in /  1023.9hPa WNW 4.0mph /  6.4km/h 12.0mph /  19.3km/h 62% 0.00in /  0mm
07:59 25.1 °F /  -3.8 °C 13.9 °F /  -10.1 °C 30.24in /  1023.9hPa West 9.0mph /  14.5km/h 14.0mph /  22.5km/h 62% 0.00in /  0mm
08:04 25.2 °F /  -3.8 °C 14.4 °F /  -9.8 °C 30.24in /  1023.9hPa West 6.0mph /  9.7km/h 14.0mph /  22.5km/h 63% 0.00in /  0mm
08:09 25.3 °F /  -3.7 °C 14.8 °F /  -9.6 °C 30.24in /  1023.9hPa West 5.0mph /  8km/h 11.0mph /  17.7km/h 64% 0.00in /  0mm
08:14 25.4 °F /  -3.7 °C 15.3 °F /  -9.3 °C 30.24in /  1023.9hPa WNW 6.0mph /  9.7km/h 11.0mph /  17.7km/h 65% 0.00in /  0mm
08:19 25.6 °F /  -3.6 °C 15.5 °F /  -9.2 °C 30.24in /  1023.9hPa WSW 6.0mph /  9.7km/h 15.0mph /  24.1km/h 65% 0.00in /  0mm
08:24 25.7 °F /  -3.5 °C 15.6 °F /  -9.1 °C 30.25in /  1024.3hPa West 10.0mph /  16.1km/h 13.0mph /  20.9km/h 65% 0.00in /  0mm
08:29 25.7 °F /  -3.5 °C 15.9 °F /  -8.9 °C 30.25in /  1024.3hPa WNW 7.0mph /  11.3km/h 17.0mph /  27.4km/h 66% 0.00in /  0mm
08:34 25.9 °F /  -3.4 °C 16.4 °F /  -8.7 °C 30.25in /  1024.3hPa WNW 8.0mph /  12.9km/h 17.0mph /  27.4km/h 67% 0.00in /  0mm
08:39 25.8 °F /  -3.4 °C 16.7 °F /  -8.5 °C 30.25in /  1024.3hPa WNW 9.0mph /  14.5km/h 16.0mph /  25.7km/h 68% 0.00in /  0mm
08:44 26.2 °F /  -3.2 °C 17.1 °F /  -8.3 °C 30.25in /  1024.3hPa WNW 8.0mph /  12.9km/h 16.0mph /  25.7km/h 68% 0.00in /  0mm
08:49 26.5 °F /  -3.1 °C 17.4 °F /  -8.1 °C 30.25in /  1024.3hPa WNW 7.0mph /  11.3km/h 15.0mph /  24.1km/h 68% 0.00in /  0mm
08:54 26.7 °F /  -2.9 °C 17.2 °F /  -8.2 °C 30.25in /  1024.3hPa NW 6.0mph /  9.7km/h 17.0mph /  27.4km/h 67% 0.00in /  0mm
08:59 26.3 °F /  -3.2 °C 16.5 °F /  -8.6 °C 30.26in /  1024.6hPa NW 10.0mph /  16.1km/h 17.0mph /  27.4km/h 66% 0.00in /  0mm
09:04 26.5 °F /  -3.1 °C 16.7 °F /  -8.5 °C 30.25in /  1024.3hPa West 8.0mph /  12.9km/h 12.0mph /  19.3km/h 66% 0.00in /  0mm
09:09 26.2 °F /  -3.2 °C 16.7 °F /  -8.5 °C 30.26in /  1024.6hPa WNW 8.0mph /  12.9km/h 14.0mph /  22.5km/h 67% 0.00in /  0mm
09:14 26.7 °F /  -2.9 °C 16.9 °F /  -8.4 °C 30.26in /  1024.6hPa WNW 8.0mph /  12.9km/h 15.0mph /  24.1km/h 66% 0.00in /  0mm
09:19 27.6 °F /  -2.4 °C 17.0 °F /  -8.3 °C 30.26in /  1024.6hPa WNW 7.0mph /  11.3km/h 15.0mph /  24.1km/h 64% 0.00in /  0mm
09:24 27.7 °F /  -2.4 °C 16.4 °F /  -8.7 °C 30.26in /  1024.6hPa WNW 7.0mph /  11.3km/h 16.0mph /  25.7km/h 62% 0.00in /  0mm
09:29 26.9 °F /  -2.8 °C 15.6 °F /  -9.1 °C 30.26in /  1024.6hPa NW 4.0mph /  6.4km/h 13.0mph /  20.9km/h 62% 0.00in /  0mm
09:34 26.7 °F /  -2.9 °C 15.8 °F /  -9 °C 30.26in /  1024.6hPa WNW 12.0mph /  19.3km/h 16.0mph /  25.7km/h 63% 0.00in /  0mm
09:39 26.8 °F /  -2.9 °C 16.2 °F /  -8.8 °C 30.26in /  1024.6hPa WSW 12.0mph /  19.3km/h 13.0mph /  20.9km/h 64% 0.00in /  0mm
09:44 27.2 °F /  -2.7 °C 16.6 °F /  -8.6 °C 30.27in /  1024.9hPa WNW 8.0mph /  12.9km/h 15.0mph /  24.1km/h 64% 0.00in /  0mm
09:49 27.0 °F /  -2.8 °C 16.8 °F /  -8.4 °C 30.27in /  1024.9hPa West 8.0mph /  12.9km/h 15.0mph /  24.1km/h 65% 0.00in /  0mm
09:54 27.6 °F /  -2.4 °C 17.4 °F /  -8.1 °C 30.27in /  1024.9hPa WNW 7.0mph /  11.3km/h 15.0mph /  24.1km/h 65% 0.00in /  0mm
09:59 26.9 °F /  -2.8 °C 18.1 °F /  -7.7 °C 30.27in /  1024.9hPa NW 2.0mph /  3.2km/h 14.0mph /  22.5km/h 69% 0.00in /  0mm
10:04 26.4 °F /  -3.1 °C 18.3 °F /  -7.6 °C 30.27in /  1024.9hPa WNW 4.0mph /  6.4km/h 13.0mph /  20.9km/h 71% 0.00in /  0mm
10:09 25.3 °F /  -3.7 °C 19.1 °F /  -7.2 °C 30.28in /  1025.3hPa West 11.0mph /  17.7km/h 14.0mph /  22.5km/h 77% 0.00in /  0mm
10:14 24.5 °F /  -4.2 °C 19.2 °F /  -7.1 °C 30.29in /  1025.6hPa NW 8.0mph /  12.9km/h 12.0mph /  19.3km/h 80% 0.00in /  0mm
10:19 24.0 °F /  -4.4 °C 19.3 °F /  -7.1 °C 30.29in /  1025.6hPa WNW 6.0mph /  9.7km/h 15.0mph /  24.1km/h 82% 0.00in /  0mm
10:24 23.8 °F /  -4.6 °C 19.4 °F /  -7 °C 30.29in /  1025.6hPa WNW 7.0mph /  11.3km/h 15.0mph /  24.1km/h 83% 0.00in /  0mm
10:29 23.8 °F /  -4.6 °C 19.7 °F /  -6.8 °C 30.30in /  1026hPa NW 5.0mph /  8km/h 12.0mph /  19.3km/h 84% 0.00in /  0mm
10:34 23.1 °F /  -4.9 °C 19.0 °F /  -7.2 °C 30.30in /  1026hPa WNW 7.0mph /  11.3km/h 17.0mph /  27.4km/h 84% 0.00in /  0mm
10:39 22.7 °F /  -5.2 °C 18.9 °F /  -7.3 °C 30.31in /  1026.3hPa NNW 5.0mph /  8km/h 11.0mph /  17.7km/h 85% 0.00in /  0mm
10:44 22.1 °F /  -5.5 °C 18.0 °F /  -7.8 °C 30.31in /  1026.3hPa NW 6.0mph /  9.7km/h 16.0mph /  25.7km/h 84% 0.00in /  0mm
10:49 21.8 °F /  -5.7 °C 18.0 °F /  -7.8 °C 30.32in /  1026.6hPa NNW 8.0mph /  12.9km/h 17.0mph /  27.4km/h 85% 0.00in /  0mm
10:54 21.8 °F /  -5.7 °C 17.7 °F /  -7.9 °C 30.32in /  1026.6hPa NNW 8.0mph /  12.9km/h 17.0mph /  27.4km/h 84% 0.00in /  0mm
10:59 21.8 °F /  -5.7 °C 17.7 °F /  -7.9 °C 30.32in /  1026.6hPa NNW 9.0mph /  14.5km/h 19.0mph /  30.6km/h 84% 0.00in /  0mm
11:04 22.3 °F /  -5.4 °C 17.6 °F /  -8 °C 30.33in /  1027hPa North 4.0mph /  6.4km/h 15.0mph /  24.1km/h 82% 0.00in /  0mm
11:09 22.9 °F /  -5.1 °C 17.4 °F /  -8.1 °C 30.33in /  1027hPa NW 7.0mph /  11.3km/h 14.0mph /  22.5km/h 79% 0.00in /  0mm
11:14 23.9 °F /  -4.5 °C 15.5 °F /  -9.2 °C 30.33in /  1027hPa North 8.0mph /  12.9km/h 19.0mph /  30.6km/h 70% 0.00in /  0mm
11:19 24.4 °F /  -4.2 °C 14.7 °F /  -9.6 °C 30.33in /  1027hPa NW 9.0mph /  14.5km/h 19.0mph /  30.6km/h 66% 0.00in /  0mm
11:24 24.9 °F /  -3.9 °C 13.7 °F /  -10.2 °C 30.33in /  1027hPa NNW 9.0mph /  14.5km/h 23.0mph /  37km/h 62% 0.00in /  0mm
11:29 24.2 °F /  -4.3 °C 12.7 °F /  -10.7 °C 30.34in /  1027.3hPa NNW 10.0mph /  16.1km/h 23.0mph /  37km/h 61% 0.01in /  0.25mm
11:34 24.7 °F /  -4.1 °C 13.5 °F /  -10.3 °C 30.34in /  1027.3hPa WNW 12.0mph /  19.3km/h 20.0mph /  32.2km/h 62% 0.01in /  0.25mm
11:39 24.0 °F /  -4.4 °C 12.1 °F /  -11.1 °C 30.34in /  1027.3hPa NNW 10.0mph /  16.1km/h 19.0mph /  30.6km/h 60% 0.01in /  0.25mm
11:44 24.7 °F /  -4.1 °C 13.1 °F /  -10.5 °C 30.35in /  1027.7hPa NNW 11.0mph /  17.7km/h 19.0mph /  30.6km/h 61% 0.01in /  0.25mm
11:49 24.6 °F /  -4.1 °C 11.9 °F /  -11.2 °C 30.35in /  1027.7hPa NW 9.0mph /  14.5km/h 19.0mph /  30.6km/h 58% 0.01in /  0.25mm
11:54 24.8 °F /  -4 °C 12.1 °F /  -11.1 °C 30.35in /  1027.7hPa NW 9.0mph /  14.5km/h 18.0mph /  29km/h 58% 0.01in /  0.25mm
11:59 23.5 °F /  -4.7 °C 8.9 °F /  -12.8 °C 30.35in /  1027.7hPa NW 5.0mph /  8km/h 17.0mph /  27.4km/h 53% 0.01in /  0.25mm
12:04 23.6 °F /  -4.7 °C 8.9 °F /  -12.8 °C 30.36in /  1028hPa NNW 8.0mph /  12.9km/h 19.0mph /  30.6km/h 53% 0.01in /  0.25mm
12:09 23.6 °F /  -4.7 °C 8.9 °F /  -12.8 °C 30.36in /  1028hPa NW 4.0mph /  6.4km/h 22.0mph /  35.4km/h 53% 0.01in /  0.25mm
12:14 23.6 °F /  -4.7 °C 7.7 °F /  -13.5 °C 30.36in /  1028hPa NE 10.0mph /  16.1km/h 15.0mph /  24.1km/h 50% 0.01in /  0.25mm
12:19 23.5 °F /  -4.7 °C 6.7 °F /  -14.1 °C 30.36in /  1028hPa NNW 10.0mph /  16.1km/h 22.0mph /  35.4km/h 48% 0.01in /  0.25mm
12:24 23.8 °F /  -4.6 °C 6.5 °F /  -14.2 °C 30.37in /  1028.3hPa NW 11.0mph /  17.7km/h 22.0mph /  35.4km/h 47% 0.01in /  0.25mm
12:29 24.2 °F /  -4.3 °C 7.3 °F /  -13.7 °C 30.37in /  1028.3hPa NW 9.0mph /  14.5km/h 22.0mph /  35.4km/h 48% 0.00in /  0mm
12:34 23.9 °F /  -4.5 °C 5.1 °F /  -14.9 °C 30.37in /  1028.3hPa NW 7.0mph /  11.3km/h 16.0mph /  25.7km/h 44% 0.00in /  0mm
12:39 24.3 °F /  -4.3 °C 6.5 °F /  -14.2 °C 30.37in /  1028.3hPa NW 8.0mph /  12.9km/h 18.0mph /  29km/h 46% 0.00in /  0mm
12:44 25.4 °F /  -3.7 °C 8.4 °F /  -13.1 °C 30.37in /  1028.3hPa NNW 10.0mph /  16.1km/h 15.0mph /  24.1km/h 48% 0.00in /  0mm
12:49 25.5 °F /  -3.6 °C 8.0 °F /  -13.3 °C 30.37in /  1028.3hPa NNW 16.0mph /  25.7km/h 18.0mph /  29km/h 47% 0.00in /  0mm
12:54 25.8 °F /  -3.4 °C 9.2 °F /  -12.7 °C 30.38in /  1028.7hPa NW 9.0mph /  14.5km/h 18.0mph /  29km/h 49% 0.00in /  0mm
12:59 25.3 °F /  -3.7 °C 8.8 °F /  -12.9 °C 30.38in /  1028.7hPa NNW 10.0mph /  16.1km/h 14.0mph /  22.5km/h 49% 0.00in /  0mm
13:04 25.2 °F /  -3.8 °C 6.8 °F /  -14 °C 30.37in /  1028.3hPa North 4.0mph /  6.4km/h 18.0mph /  29km/h 45% 0.00in /  0mm
13:09 25.1 °F /  -3.8 °C 7.2 °F /  -13.8 °C 30.38in /  1028.7hPa West 12.0mph /  19.3km/h 17.0mph /  27.4km/h 46% 0.00in /  0mm
13:14 25.5 °F /  -3.6 °C 7.6 °F /  -13.6 °C 30.38in /  1028.7hPa West 10.0mph /  16.1km/h 16.0mph /  25.7km/h 46% 0.00in /  0mm
13:19 24.7 °F /  -4.1 °C 7.8 °F /  -13.4 °C 30.38in /  1028.7hPa WNW 8.0mph /  12.9km/h 18.0mph /  29km/h 48% 0.00in /  0mm
13:24 24.3 °F /  -4.3 °C 6.9 °F /  -13.9 °C 30.38in /  1028.7hPa NNW 6.0mph /  9.7km/h 18.0mph /  29km/h 47% 0.00in /  0mm
13:29 24.3 °F /  -4.3 °C 7.4 °F /  -13.7 °C 30.39in /  1029hPa NNW 8.0mph /  12.9km/h 18.0mph /  29km/h 48% 0.00in /  0mm
13:34 24.0 °F /  -4.4 °C 8.0 °F /  -13.3 °C 30.39in /  1029hPa NW 8.0mph /  12.9km/h 18.0mph /  29km/h 50% 0.00in /  0mm
13:39 24.0 °F /  -4.4 °C 8.0 °F /  -13.3 °C 30.39in /  1029hPa NW 9.0mph /  14.5km/h 17.0mph /  27.4km/h 50% 0.00in /  0mm
13:44 23.4 °F /  -4.8 °C 6.6 °F /  -14.1 °C 30.39in /  1029hPa WNW 10.0mph /  16.1km/h 18.0mph /  29km/h 48% 0.00in /  0mm
13:49 23.7 °F /  -4.6 °C 6.8 °F /  -14 °C 30.39in /  1029hPa North 8.0mph /  12.9km/h 17.0mph /  27.4km/h 48% 0.00in /  0mm
13:54 23.3 °F /  -4.8 °C 6.5 °F /  -14.2 °C 30.40in /  1029.3hPa North 6.0mph /  9.7km/h 20.0mph /  32.2km/h 48% 0.00in /  0mm
13:59 23.5 °F /  -4.7 °C 7.1 °F /  -13.8 °C 30.40in /  1029.3hPa NW 7.0mph /  11.3km/h 20.0mph /  32.2km/h 49% 0.00in /  0mm
14:04 24.4 °F /  -4.2 °C 7.5 °F /  -13.6 °C 30.40in /  1029.3hPa NW 8.0mph /  12.9km/h 18.0mph /  29km/h 48% 0.00in /  0mm
14:09 24.6 °F /  -4.1 °C 8.1 °F /  -13.3 °C 30.40in /  1029.3hPa WNW 10.0mph /  16.1km/h 18.0mph /  29km/h 49% 0.00in /  0mm
14:14 24.7 °F /  -4.1 °C 9.1 °F /  -12.7 °C 30.40in /  1029.3hPa WNW 10.0mph /  16.1km/h 18.0mph /  29km/h 51% 0.00in /  0mm
14:19 25.3 °F /  -3.7 °C 9.2 °F /  -12.7 °C 30.40in /  1029.3hPa West 5.0mph /  8km/h 13.0mph /  20.9km/h 50% 0.00in /  0mm
14:24 24.4 °F /  -4.2 °C 7.9 °F /  -13.4 °C 30.41in /  1029.7hPa NNW 5.0mph /  8km/h 22.0mph /  35.4km/h 49% 0.00in /  0mm
14:29 23.4 °F /  -4.8 °C 7.0 °F /  -13.9 °C 30.41in /  1029.7hPa West 9.0mph /  14.5km/h 23.0mph /  37km/h 49% 0.00in /  0mm
14:34 23.6 °F /  -4.7 °C 6.8 °F /  -14 °C 30.41in /  1029.7hPa NW 8.0mph /  12.9km/h 23.0mph /  37km/h 48% 0.00in /  0mm
14:39 25.0 °F /  -3.9 °C 8.5 °F /  -13.1 °C 30.41in /  1029.7hPa NW 9.0mph /  14.5km/h 18.0mph /  29km/h 49% 0.00in /  0mm
14:44 23.8 °F /  -4.6 °C 5.5 °F /  -14.7 °C 30.42in /  1030hPa WNW 5.0mph /  8km/h 19.0mph /  30.6km/h 45% 0.00in /  0mm
14:49 23.6 °F /  -4.7 °C 6.8 °F /  -14 °C 30.42in /  1030hPa WNW 9.0mph /  14.5km/h 19.0mph /  30.6km/h 48% 0.00in /  0mm
14:54 24.1 °F /  -4.4 °C 6.7 °F /  -14.1 °C 30.42in /  1030hPa NW 14.0mph /  22.5km/h 18.0mph /  29km/h 47% 0.00in /  0mm
14:59 22.9 °F /  -5.1 °C 6.1 °F /  -14.4 °C 30.43in /  1030.4hPa WNW 5.0mph /  8km/h 19.0mph /  30.6km/h 48% 0.00in /  0mm
15:04 22.4 °F /  -5.3 °C 5.6 °F /  -14.7 °C 30.43in /  1030.4hPa NW 15.0mph /  24.1km/h 18.0mph /  29km/h 48% 0.00in /  0mm
15:09 23.4 °F /  -4.8 °C 5.6 °F /  -14.7 °C 30.43in /  1030.4hPa NW 9.0mph /  14.5km/h 18.0mph /  29km/h 46% 0.00in /  0mm
15:14 23.0 °F /  -5 °C 4.3 °F /  -15.4 °C 30.43in /  1030.4hPa NW 11.0mph /  17.7km/h 19.0mph /  30.6km/h 44% 0.00in /  0mm
15:19 22.7 °F /  -5.2 °C 5.5 °F /  -14.7 °C 30.44in /  1030.7hPa NNW 8.0mph /  12.9km/h 18.0mph /  29km/h 47% 0.00in /  0mm
15:24 22.5 °F /  -5.3 °C 5.7 °F /  -14.6 °C 30.44in /  1030.7hPa NW 11.0mph /  17.7km/h 15.0mph /  24.1km/h 48% 0.00in /  0mm
15:29 22.2 °F /  -5.4 °C 6.4 °F /  -14.2 °C 30.44in /  1030.7hPa North 4.0mph /  6.4km/h 13.0mph /  20.9km/h 50% 0.00in /  0mm
15:34 23.0 °F /  -5 °C 6.2 °F /  -14.3 °C 30.44in /  1030.7hPa WNW 6.0mph /  9.7km/h 11.0mph /  17.7km/h 48% 0.00in /  0mm
15:39 22.4 °F /  -5.3 °C 5.6 °F /  -14.7 °C 30.44in /  1030.7hPa NW 7.0mph /  11.3km/h 15.0mph /  24.1km/h 48% 0.00in /  0mm
15:44 22.8 °F /  -5.1 °C 6.5 °F /  -14.2 °C 30.44in /  1030.7hPa NW 8.0mph /  12.9km/h 20.0mph /  32.2km/h 49% 0.00in /  0mm
15:49 22.3 °F /  -5.4 °C 6.4 °F /  -14.2 °C 30.45in /  1031hPa NW 8.0mph /  12.9km/h 20.0mph /  32.2km/h 50% 0.00in /  0mm
15:54 23.1 °F /  -4.9 °C 7.2 °F /  -13.8 °C 30.45in /  1031hPa NW 7.0mph /  11.3km/h 17.0mph /  27.4km/h 50% 0.00in /  0mm
15:59 24.0 °F /  -4.4 °C 6.7 °F /  -14.1 °C 30.44in /  1030.7hPa NW 7.0mph /  11.3km/h 17.0mph /  27.4km/h 47% 0.00in /  0mm
16:04 22.6 °F /  -5.2 °C 6.3 °F /  -14.3 °C 30.45in /  1031hPa NW 5.0mph /  8km/h 15.0mph /  24.1km/h 49% 0.00in /  0mm
16:09 23.2 °F /  -4.9 °C 5.9 °F /  -14.5 °C 30.45in /  1031hPa WNW 8.0mph /  12.9km/h 14.0mph /  22.5km/h 47% 0.00in /  0mm
16:14 23.6 °F /  -4.7 °C 5.8 °F /  -14.6 °C 30.45in /  1031hPa NW 11.0mph /  17.7km/h 17.0mph /  27.4km/h 46% 0.00in /  0mm
16:19 22.8 °F /  -5.1 °C 6.0 °F /  -14.4 °C 30.46in /  1031.4hPa West 6.0mph /  9.7km/h 17.0mph /  27.4km/h 48% 0.00in /  0mm
16:24 22.0 °F /  -5.6 °C 7.0 °F /  -13.9 °C 30.46in /  1031.4hPa WNW 6.0mph /  9.7km/h 15.0mph /  24.1km/h 52% 0.00in /  0mm
16:29 22.1 °F /  -5.5 °C 7.1 °F /  -13.8 °C 30.46in /  1031.4hPa WNW 9.0mph /  14.5km/h 14.0mph /  22.5km/h 52% 0.00in /  0mm
16:34 22.3 °F /  -5.4 °C 6.4 °F /  -14.2 °C 30.46in /  1031.4hPa NW 16.0mph /  25.7km/h 16.0mph /  25.7km/h 50% 0.00in /  0mm
16:39 22.3 °F /  -5.4 °C 6.0 °F /  -14.4 °C 30.46in /  1031.4hPa NNW 9.0mph /  14.5km/h 18.0mph /  29km/h 49% 0.00in /  0mm
16:44 22.5 °F /  -5.3 °C 6.2 °F /  -14.3 °C 30.46in /  1031.4hPa NW 9.0mph /  14.5km/h 18.0mph /  29km/h 49% 0.00in /  0mm
16:49 22.4 °F /  -5.3 °C 6.5 °F /  -14.2 °C 30.46in /  1031.4hPa NW 7.0mph /  11.3km/h 16.0mph /  25.7km/h 50% 0.00in /  0mm
16:54 22.2 °F /  -5.4 °C 6.4 °F /  -14.2 °C 30.47in /  1031.7hPa NW 7.0mph /  11.3km/h 15.0mph /  24.1km/h 50% 0.00in /  0mm
16:59 22.2 °F /  -5.4 °C 6.4 °F /  -14.2 °C 30.47in /  1031.7hPa NW 8.0mph /  12.9km/h 17.0mph /  27.4km/h 50% 0.00in /  0mm
17:04 22.1 °F /  -5.5 °C 7.6 °F /  -13.6 °C 30.47in /  1031.7hPa West 4.0mph /  6.4km/h 15.0mph /  24.1km/h 53% 0.00in /  0mm
17:09 21.5 °F /  -5.8 °C 6.6 °F /  -14.1 °C 30.48in /  1032.1hPa North 5.0mph /  8km/h 14.0mph /  22.5km/h 52% 0.00in /  0mm
17:14 21.5 °F /  -5.8 °C 6.1 °F /  -14.4 °C 30.48in /  1032.1hPa NNW 6.0mph /  9.7km/h 14.0mph /  22.5km/h 51% 0.00in /  0mm
17:19 21.3 °F /  -5.9 °C 6.0 °F /  -14.4 °C 30.48in /  1032.1hPa NW 10.0mph /  16.1km/h 18.0mph /  29km/h 51% 0.00in /  0mm
17:24 21.2 °F /  -6 °C 6.7 °F /  -14.1 °C 30.48in /  1032.1hPa WNW 6.0mph /  9.7km/h 16.0mph /  25.7km/h 53% 0.00in /  0mm
17:29 21.3 °F /  -5.9 °C 5.5 °F /  -14.7 °C 30.48in /  1032.1hPa WNW 9.0mph /  14.5km/h 14.0mph /  22.5km/h 50% 0.00in /  0mm
17:34 21.2 °F /  -6 °C 4.5 °F /  -15.3 °C 30.49in /  1032.4hPa WNW 9.0mph /  14.5km/h 16.0mph /  25.7km/h 48% 0.00in /  0mm
17:39 21.0 °F /  -6.1 °C 3.4 °F /  -15.9 °C 30.49in /  1032.4hPa West 11.0mph /  17.7km/h 17.0mph /  27.4km/h 46% 0.00in /  0mm
17:44 20.9 °F /  -6.2 °C 3.8 °F /  -15.7 °C 30.49in /  1032.4hPa WNW 8.0mph /  12.9km/h 17.0mph /  27.4km/h 47% 0.00in /  0mm
17:49 20.9 °F /  -6.2 °C 4.3 °F /  -15.4 °C 30.49in /  1032.4hPa WNW 7.0mph /  11.3km/h 15.0mph /  24.1km/h 48% 0.00in /  0mm
17:54 20.7 °F /  -6.3 °C 4.1 °F /  -15.5 °C 30.49in /  1032.4hPa WNW 7.0mph /  11.3km/h 16.0mph /  25.7km/h 48% 0.00in /  0mm
17:59 20.6 °F /  -6.3 °C 5.3 °F /  -14.8 °C 30.50in /  1032.7hPa WNW 7.0mph /  11.3km/h 16.0mph /  25.7km/h 51% 0.00in /  0mm
18:04 20.2 °F /  -6.6 °C 6.2 °F /  -14.3 °C 30.50in /  1032.7hPa WNW 7.0mph /  11.3km/h 14.0mph /  22.5km/h 54% 0.00in /  0mm
18:09 20.1 °F /  -6.6 °C 6.1 °F /  -14.4 °C 30.50in /  1032.7hPa WNW 3.0mph /  4.8km/h 11.0mph /  17.7km/h 54% 0.00in /  0mm
18:14 19.9 °F /  -6.7 °C 6.3 °F /  -14.3 °C 30.50in /  1032.7hPa NW 9.0mph /  14.5km/h 14.0mph /  22.5km/h 55% 0.00in /  0mm
18:19 19.9 °F /  -6.7 °C 6.7 °F /  -14.1 °C 30.50in /  1032.7hPa WNW 7.0mph /  11.3km/h 14.0mph /  22.5km/h 56% 0.00in /  0mm
18:24 19.7 °F /  -6.8 °C 6.9 °F /  -13.9 °C 30.50in /  1032.7hPa NW 3.0mph /  4.8km/h 12.0mph /  19.3km/h 57% 0.00in /  0mm
18:29 19.6 °F /  -6.9 °C 7.2 °F /  -13.8 °C 30.51in /  1033.1hPa West 3.0mph /  4.8km/h 15.0mph /  24.1km/h 58% 0.00in /  0mm
18:34 19.5 °F /  -6.9 °C 7.5 °F /  -13.6 °C 30.51in /  1033.1hPa NW 3.0mph /  4.8km/h 16.0mph /  25.7km/h 59% 0.00in /  0mm
18:39 19.5 °F /  -6.9 °C 8.6 °F /  -13 °C 30.51in /  1033.1hPa West 5.0mph /  8km/h 17.0mph /  27.4km/h 62% 0.00in /  0mm
18:44 19.2 °F /  -7.1 °C 8.3 °F /  -13.2 °C 30.51in /  1033.1hPa WNW 11.0mph /  17.7km/h 11.0mph /  17.7km/h 62% 0.00in /  0mm
18:49 19.1 °F /  -7.2 °C 8.2 °F /  -13.2 °C 30.51in /  1033.1hPa WNW 5.0mph /  8km/h 12.0mph /  19.3km/h 62% 0.00in /  0mm
18:54 19.0 °F /  -7.2 °C 8.1 °F /  -13.3 °C 30.51in /  1033.1hPa WNW 5.0mph /  8km/h 12.0mph /  19.3km/h 62% 0.00in /  0mm
18:59 19.1 °F /  -7.2 °C 8.2 °F /  -13.2 °C 30.51in /  1033.1hPa WNW 4.0mph /  6.4km/h 9.0mph /  14.5km/h 62% 0.00in /  0mm
19:04 19.1 °F /  -7.2 °C 7.8 °F /  -13.4 °C 30.51in /  1033.1hPa WNW 5.0mph /  8km/h 10.0mph /  16.1km/h 61% 0.00in /  0mm
19:09 19.1 °F /  -7.2 °C 7.5 °F /  -13.6 °C 30.51in /  1033.1hPa WNW 8.0mph /  12.9km/h 11.0mph /  17.7km/h 60% 0.00in /  0mm
19:14 19.2 °F /  -7.1 °C 6.1 °F /  -14.4 °C 30.52in /  1033.4hPa WNW 6.0mph /  9.7km/h 13.0mph /  20.9km/h 56% 0.00in /  0mm
19:19 19.3 °F /  -7.1 °C 6.5 °F /  -14.2 °C 30.52in /  1033.4hPa WNW 7.0mph /  11.3km/h 13.0mph /  20.9km/h 57% 0.00in /  0mm
19:24 19.3 °F /  -7.1 °C 6.5 °F /  -14.2 °C 30.52in /  1033.4hPa WNW 6.0mph /  9.7km/h 12.0mph /  19.3km/h 57% 0.00in /  0mm
19:29 19.4 °F /  -7 °C 6.6 °F /  -14.1 °C 30.52in /  1033.4hPa WNW 8.0mph /  12.9km/h 11.0mph /  17.7km/h 57% 0.00in /  0mm
19:34 19.3 °F /  -7.1 °C 6.1 °F /  -14.4 °C 30.52in /  1033.4hPa WNW 9.0mph /  14.5km/h 16.0mph /  25.7km/h 56% 0.00in /  0mm
19:39 19.3 °F /  -7.1 °C 6.5 °F /  -14.2 °C 30.52in /  1033.4hPa WNW 9.0mph /  14.5km/h 14.0mph /  22.5km/h 57% 0.00in /  0mm
19:44 19.2 °F /  -7.1 °C 6.8 °F /  -14 °C 30.52in /  1033.4hPa WNW 6.0mph /  9.7km/h 15.0mph /  24.1km/h 58% 0.00in /  0mm
19:49 19.0 °F /  -7.2 °C 7.0 °F /  -13.9 °C 30.52in /  1033.4hPa WNW 9.0mph /  14.5km/h 13.0mph /  20.9km/h 59% 0.00in /  0mm
19:54 18.9 °F /  -7.3 °C 6.9 °F /  -13.9 °C 30.53in /  1033.7hPa WNW 5.0mph /  8km/h 13.0mph /  20.9km/h 59% 0.00in /  0mm
19:59 18.8 °F /  -7.3 °C 7.2 °F /  -13.8 °C 30.53in /  1033.7hPa WNW 6.0mph /  9.7km/h 12.0mph /  19.3km/h 60% 0.00in /  0mm
20:04 18.7 °F /  -7.4 °C 7.1 °F /  -13.8 °C 30.53in /  1033.7hPa WNW 5.0mph /  8km/h 10.0mph /  16.1km/h 60% 0.00in /  0mm
20:09 18.7 °F /  -7.4 °C 6.7 °F /  -14.1 °C 30.53in /  1033.7hPa WNW 5.0mph /  8km/h 10.0mph /  16.1km/h 59% 0.00in /  0mm
20:14 18.6 °F /  -7.4 °C 6.6 °F /  -14.1 °C 30.53in /  1033.7hPa West 3.0mph /  4.8km/h 11.0mph /  17.7km/h 59% 0.00in /  0mm
20:19 18.6 °F /  -7.4 °C 6.3 °F /  -14.3 °C 30.53in /  1033.7hPa NNW 9.0mph /  14.5km/h 15.0mph /  24.1km/h 58% 0.00in /  0mm
20:24 18.5 °F /  -7.5 °C 6.5 °F /  -14.2 °C 30.53in /  1033.7hPa West 4.0mph /  6.4km/h 13.0mph /  20.9km/h 59% 0.00in /  0mm
20:29 18.5 °F /  -7.5 °C 6.9 °F /  -13.9 °C 30.53in /  1033.7hPa West 6.0mph /  9.7km/h 13.0mph /  20.9km/h 60% 0.00in /  0mm
20:34 18.4 °F /  -7.6 °C 6.8 °F /  -14 °C 30.53in /  1033.7hPa West 7.0mph /  11.3km/h 12.0mph /  19.3km/h 60% 0.00in /  0mm
20:39 18.4 °F /  -7.6 °C 7.2 °F /  -13.8 °C 30.53in /  1033.7hPa West 7.0mph /  11.3km/h 12.0mph /  19.3km/h 61% 0.00in /  0mm
20:44 18.4 °F /  -7.6 °C 7.2 °F /  -13.8 °C 30.54in /  1034.1hPa West 7.0mph /  11.3km/h 16.0mph /  25.7km/h 61% 0.00in /  0mm
20:49 18.4 °F /  -7.6 °C 7.5 °F /  -13.6 °C 30.54in /  1034.1hPa West 5.0mph /  8km/h 12.0mph /  19.3km/h 62% 0.00in /  0mm
20:54 18.3 °F /  -7.6 °C 7.4 °F /  -13.7 °C 30.54in /  1034.1hPa West 5.0mph /  8km/h 12.0mph /  19.3km/h 62% 0.00in /  0mm
20:59 18.3 °F /  -7.6 °C 7.4 °F /  -13.7 °C 30.54in /  1034.1hPa West 7.0mph /  11.3km/h 15.0mph /  24.1km/h 62% 0.00in /  0mm
21:04 18.3 °F /  -7.6 °C 7.8 °F /  -13.4 °C 30.54in /  1034.1hPa WNW 4.0mph /  6.4km/h 8.0mph /  12.9km/h 63% 0.00in /  0mm
21:09 18.2 °F /  -7.7 °C 7.7 °F /  -13.5 °C 30.54in /  1034.1hPa WNW 3.0mph /  4.8km/h 9.0mph /  14.5km/h 63% 0.00in /  0mm
21:14 18.3 °F /  -7.6 °C 7.8 °F /  -13.4 °C 30.55in /  1034.4hPa West 5.0mph /  8km/h 8.0mph /  12.9km/h 63% 0.00in /  0mm
21:19 18.2 °F /  -7.7 °C 7.3 °F /  -13.7 °C 30.55in /  1034.4hPa WNW 9.0mph /  14.5km/h 12.0mph /  19.3km/h 62% 0.00in /  0mm
21:24 18.1 °F /  -7.7 °C 6.9 °F /  -13.9 °C 30.55in /  1034.4hPa WNW 3.0mph /  4.8km/h 10.0mph /  16.1km/h 61% 0.00in /  0mm
21:29 17.9 °F /  -7.8 °C 6.7 °F /  -14.1 °C 30.55in /  1034.4hPa West 5.0mph /  8km/h 10.0mph /  16.1km/h 61% 0.00in /  0mm
21:34 17.8 °F /  -7.9 °C 7.0 °F /  -13.9 °C 30.55in /  1034.4hPa West 5.0mph /  8km/h 10.0mph /  16.1km/h 62% 0.00in /  0mm
21:39 17.7 °F /  -7.9 °C 6.9 °F /  -13.9 °C 30.55in /  1034.4hPa WNW 5.0mph /  8km/h 10.0mph /  16.1km/h 62% 0.00in /  0mm
21:44 17.5 °F /  -8.1 °C 6.7 °F /  -14.1 °C 30.55in /  1034.4hPa West 4.0mph /  6.4km/h 8.0mph /  12.9km/h 62% 0.00in /  0mm
21:49 17.6 °F /  -8 °C 6.8 °F /  -14 °C 30.55in /  1034.4hPa WNW 3.0mph /  4.8km/h 9.0mph /  14.5km/h 62% 0.00in /  0mm
21:54 17.6 °F /  -8 °C 6.8 °F /  -14 °C 30.54in /  1034.1hPa WNW 4.0mph /  6.4km/h 9.0mph /  14.5km/h 62% 0.00in /  0mm
21:59 17.7 °F /  -7.9 °C 6.9 °F /  -13.9 °C 30.55in /  1034.4hPa WSW 2.0mph /  3.2km/h 7.0mph /  11.3km/h 62% 0.00in /  0mm
22:04 17.9 °F /  -7.8 °C 7.1 °F /  -13.8 °C 30.54in /  1034.1hPa WSW 1.0mph /  1.6km/h 4.0mph /  6.4km/h 62% 0.00in /  0mm
22:09 17.9 °F /  -7.8 °C 7.4 °F /  -13.7 °C 30.54in /  1034.1hPa West 1.0mph /  1.6km/h 4.0mph /  6.4km/h 63% 0.00in /  0mm
22:14 18.0 °F /  -7.8 °C 7.2 °F /  -13.8 °C 30.54in /  1034.1hPa West 6.0mph /  9.7km/h 6.0mph /  9.7km/h 62% 0.00in /  0mm
22:19 18.0 °F /  -7.8 °C 7.2 °F /  -13.8 °C 30.54in /  1034.1hPa WSW 1.0mph /  1.6km/h 5.0mph /  8km/h 62% 0.00in /  0mm
22:24 18.0 °F /  -7.8 °C 7.2 °F /  -13.8 °C 30.54in /  1034.1hPa West 4.0mph /  6.4km/h 6.0mph /  9.7km/h 62% 0.00in /  0mm
22:29 18.1 °F /  -7.7 °C 7.6 °F /  -13.6 °C 30.54in /  1034.1hPa West 3.0mph /  4.8km/h 6.0mph /  9.7km/h 63% 0.00in /  0mm
22:34 18.1 °F /  -7.7 °C 7.6 °F /  -13.6 °C 30.54in /  1034.1hPa West 5.0mph /  8km/h 8.0mph /  12.9km/h 63% 0.00in /  0mm
22:39 18.1 °F /  -7.7 °C 7.6 °F /  -13.6 °C 30.54in /  1034.1hPa WNW 4.0mph /  6.4km/h 8.0mph /  12.9km/h 63% 0.00in /  0mm
22:44 18.2 °F /  -7.7 °C 8.1 °F /  -13.3 °C 30.54in /  1034.1hPa WNW 4.0mph /  6.4km/h 9.0mph /  14.5km/h 64% 0.00in /  0mm
22:49 18.2 °F /  -7.7 °C 8.1 °F /  -13.3 °C 30.54in /  1034.1hPa West 4.0mph /  6.4km/h 9.0mph /  14.5km/h 64% 0.00in /  0mm
22:54 18.2 °F /  -7.7 °C 8.1 °F /  -13.3 °C 30.54in /  1034.1hPa West 4.0mph /  6.4km/h 9.0mph /  14.5km/h 64% 0.00in /  0mm
22:59 18.3 °F /  -7.6 °C 8.5 °F /  -13.1 °C 30.54in /  1034.1hPa West 2.0mph /  3.2km/h 5.0mph /  8km/h 65% 0.00in /  0mm
23:04 18.2 °F /  -7.7 °C 8.4 °F /  -13.1 °C 30.54in /  1034.1hPa WNW 2.0mph /  3.2km/h 8.0mph /  12.9km/h 65% 0.00in /  0mm
23:09 18.2 °F /  -7.7 °C 8.4 °F /  -13.1 °C 30.54in /  1034.1hPa WNW 4.0mph /  6.4km/h 8.0mph /  12.9km/h 65% 0.00in /  0mm
23:14 18.1 °F /  -7.7 °C 8.3 °F /  -13.2 °C 30.54in /  1034.1hPa West 2.0mph /  3.2km/h 7.0mph /  11.3km/h 65% 0.00in /  0mm
23:19 18.1 °F /  -7.7 °C 8.3 °F /  -13.2 °C 30.54in /  1034.1hPa West 3.0mph /  4.8km/h 7.0mph /  11.3km/h 65% 0.00in /  0mm
23:24 18.2 °F /  -7.7 °C 8.7 °F /  -12.9 °C 30.54in /  1034.1hPa West 2.0mph /  3.2km/h 6.0mph /  9.7km/h 66% 0.00in /  0mm
23:29 18.2 °F /  -7.7 °C 8.4 °F /  -13.1 °C 30.54in /  1034.1hPa WSW 3.0mph /  4.8km/h 6.0mph /  9.7km/h 65% 0.00in /  0mm
23:34 18.3 °F /  -7.6 °C 8.5 °F /  -13.1 °C 30.54in /  1034.1hPa West 5.0mph /  8km/h 6.0mph /  9.7km/h 65% 0.00in /  0mm
23:39 18.4 °F /  -7.6 °C 8.6 °F /  -13 °C 30.54in /  1034.1hPa WSW 2.0mph /  3.2km/h 7.0mph /  11.3km/h 65% 0.00in /  0mm
23:44 18.4 °F /  -7.6 °C 8.6 °F /  -13 °C 30.54in /  1034.1hPa West 4.0mph /  6.4km/h 7.0mph /  11.3km/h 65% 0.00in /  0mm
23:49 18.4 °F /  -7.6 °C 8.6 °F /  -13 °C 30.54in /  1034.1hPa West 4.0mph /  6.4km/h 7.0mph /  11.3km/h 65% 0.00in /  0mm
23:54 18.4 °F /  -7.6 °C 8.6 °F /  -13 °C 30.54in /  1034.1hPa West 4.0mph /  6.4km/h 8.0mph /  12.9km/h 65% 0.00in /  0mm
23:59 18.5 °F /  -7.5 °C 8.7 °F /  -12.9 °C 30.54in /  1034.1hPa NW 6.0mph /  9.7km/h 9.0mph /  14.5km/h 65% 0.00in /  0mm
Buffalo, New York, USA
Compliments of Weather Underground - 2.5 mb